EIKY/KIR METAR and TAF weather

Enter ICAO airport designator
Station Type Date Time Source
EIKY METAR 2020/11/27 14:00 UTC NOAA

EIKY 271400Z 17006KT 9999 SCT041 09/04 Q1015


Station Type Date Time Source
EIKY Decoded METAR 2020/11/27 14:00 UTC NOAA

Station name not available
Nov 27, 2020 - 09:00 AM EST / 2020.11.27 1400 UTC
Wind: from the S (170 degrees) at 7 MPH (6 KT):0
Visibility: greater than 7 mile(s):0
Sky conditions: partly cloudy
Temperature: 48 F (9 C)
Dew Point: 39 F (4 C)
Relative Humidity: 70%
Pressure (altimeter): 29.97 in. Hg (1015 hPa)
ob: EIKY 271400Z 17006KT 9999 SCT041 09/04 Q1015
cycle: 14

Station Type Date Time Source
EIKY TAF UTC NOAA

Error!

Example: see airport list